sensor_id;sensor_type;location;lat;lon;timestamp;P1;durP1;ratioP1;P2;durP2;ratioP2
35921;SDS011;22013;48.428;11.974;2022-07-06T00:00:42;2.27;;;2.13;;
35921;SDS011;22013;48.428;11.974;2022-07-06T00:03:18;2.47;;;2.27;;
35921;SDS011;22013;48.428;11.974;2022-07-06T00:05:53;5.87;;;2.47;;
35921;SDS011;22013;48.428;11.974;2022-07-06T00:08:29;4.43;;;2.03;;
35921;SDS011;22013;48.428;11.974;2022-07-06T00:11:05;2.53;;;2.20;;
35921;SDS011;22013;48.428;11.974;2022-07-06T00:13:41;2.77;;;1.97;;
35921;SDS011;22013;48.428;11.974;2022-07-06T00:16:19;3.27;;;2.20;;
35921;SDS011;22013;48.428;11.974;2022-07-06T00:18:55;4.50;;;2.40;;
35921;SDS011;22013;48.428;11.974;2022-07-06T00:21:31;4.20;;;2.00;;
35921;SDS011;22013;48.428;11.974;2022-07-06T00:24:06;2.40;;;2.20;;
35921;SDS011;22013;48.428;11.974;2022-07-06T00:26:42;2.13;;;1.93;;
35921;SDS011;22013;48.428;11.974;2022-07-06T00:29:18;3.20;;;1.97;;
35921;SDS011;22013;48.428;11.974;2022-07-06T00:31:56;2.07;;;1.87;;
35921;SDS011;22013;48.428;11.974;2022-07-06T00:34:31;3.07;;;2.40;;
35921;SDS011;22013;48.428;11.974;2022-07-06T00:37:07;2.43;;;2.20;;
35921;SDS011;22013;48.428;11.974;2022-07-06T00:39:43;3.00;;;2.00;;
35921;SDS011;22013;48.428;11.974;2022-07-06T00:42:19;2.57;;;2.37;;
35921;SDS011;22013;48.428;11.974;2022-07-06T00:44:55;2.33;;;2.10;;
35921;SDS011;22013;48.428;11.974;2022-07-06T00:47:34;2.23;;;2.03;;
35921;SDS011;22013;48.428;11.974;2022-07-06T00:50:10;2.43;;;2.23;;
35921;SDS011;22013;48.428;11.974;2022-07-06T00:52:52;6.03;;;2.30;;
35921;SDS011;22013;48.428;11.974;2022-07-06T00:55:30;8.10;;;2.50;;
35921;SDS011;22013;48.428;11.974;2022-07-06T00:58:07;5.10;;;2.10;;
35921;SDS011;22013;48.428;11.974;2022-07-06T01:00:43;2.53;;;2.33;;
35921;SDS011;22013;48.428;11.974;2022-07-06T01:03:21;2.70;;;2.47;;
35921;SDS011;22013;48.428;11.974;2022-07-06T01:05:57;6.70;;;2.50;;
35921;SDS011;22013;48.428;11.974;2022-07-06T01:08:33;2.40;;;2.20;;
35921;SDS011;22013;48.428;11.974;2022-07-06T01:11:08;3.20;;;2.50;;
35921;SDS011;22013;48.428;11.974;2022-07-06T01:13:44;6.07;;;3.00;;
35921;SDS011;22013;48.428;11.974;2022-07-06T01:16:20;3.93;;;2.67;;
35921;SDS011;22013;48.428;11.974;2022-07-06T01:18:58;5.60;;;3.30;;
35921;SDS011;22013;48.428;11.974;2022-07-06T01:21:39;4.53;;;2.83;;
35921;SDS011;22013;48.428;11.974;2022-07-06T01:24:15;4.63;;;2.73;;
35921;SDS011;22013;48.428;11.974;2022-07-06T01:26:51;2.90;;;2.53;;
35921;SDS011;22013;48.428;11.974;2022-07-06T01:29:26;3.00;;;2.73;;
35921;SDS011;22013;48.428;11.974;2022-07-06T01:32:03;3.37;;;2.70;;
35921;SDS011;22013;48.428;11.974;2022-07-06T01:34:40;2.73;;;2.40;;
35921;SDS011;22013;48.428;11.974;2022-07-06T01:37:18;3.93;;;2.73;;
35921;SDS011;22013;48.428;11.974;2022-07-06T01:39:53;6.03;;;3.00;;
35921;SDS011;22013;48.428;11.974;2022-07-06T01:42:34;7.23;;;3.10;;
35921;SDS011;22013;48.428;11.974;2022-07-06T01:45:11;4.53;;;2.70;;
35921;SDS011;22013;48.428;11.974;2022-07-06T01:47:46;2.77;;;2.57;;
35921;SDS011;22013;48.428;11.974;2022-07-06T01:50:22;3.93;;;2.77;;
35921;SDS011;22013;48.428;11.974;2022-07-06T01:53:01;2.80;;;2.60;;
35921;SDS011;22013;48.428;11.974;2022-07-06T01:55:37;2.97;;;2.77;;
35921;SDS011;22013;48.428;11.974;2022-07-06T01:58:14;9.43;;;2.70;;
35921;SDS011;22013;48.428;11.974;2022-07-06T02:00:50;7.67;;;2.80;;
35921;SDS011;22013;48.428;11.974;2022-07-06T02:03:26;2.80;;;2.60;;
35921;SDS011;22013;48.428;11.974;2022-07-06T02:06:04;5.90;;;2.70;;
35921;SDS011;22013;48.428;11.974;2022-07-06T02:08:43;3.37;;;3.07;;
35921;SDS011;22013;48.428;11.974;2022-07-06T02:11:19;2.73;;;2.53;;
35921;SDS011;22013;48.428;11.974;2022-07-06T02:13:55;5.10;;;2.80;;
35921;SDS011;22013;48.428;11.974;2022-07-06T02:16:30;18.23;;;3.03;;
35921;SDS011;22013;48.428;11.974;2022-07-06T02:19:06;5.47;;;2.70;;
35921;SDS011;22013;48.428;11.974;2022-07-06T02:21:42;6.07;;;2.70;;
35921;SDS011;22013;48.428;11.974;2022-07-06T02:24:21;4.07;;;2.93;;
35921;SDS011;22013;48.428;11.974;2022-07-06T02:26:57;3.37;;;2.77;;
35921;SDS011;22013;48.428;11.974;2022-07-06T02:29:33;3.33;;;3.00;;
35921;SDS011;22013;48.428;11.974;2022-07-06T02:32:10;5.90;;;2.63;;
35921;SDS011;22013;48.428;11.974;2022-07-06T02:34:46;5.63;;;2.97;;
35921;SDS011;22013;48.428;11.974;2022-07-06T02:37:24;2.77;;;2.57;;
35921;SDS011;22013;48.428;11.974;2022-07-06T02:40:03;2.80;;;2.60;;
35921;SDS011;22013;48.428;11.974;2022-07-06T02:42:39;3.10;;;2.57;;
35921;SDS011;22013;48.428;11.974;2022-07-06T02:45:16;3.23;;;2.87;;
35921;SDS011;22013;48.428;11.974;2022-07-06T02:47:52;4.80;;;3.10;;
35921;SDS011;22013;48.428;11.974;2022-07-06T02:50:29;2.80;;;2.60;;
35921;SDS011;22013;48.428;11.974;2022-07-06T02:53:05;3.90;;;2.90;;
35921;SDS011;22013;48.428;11.974;2022-07-06T02:55:43;3.83;;;2.80;;
35921;SDS011;22013;48.428;11.974;2022-07-06T02:58:19;5.30;;;3.47;;
35921;SDS011;22013;48.428;11.974;2022-07-06T03:00:56;2.50;;;2.30;;
35921;SDS011;22013;48.428;11.974;2022-07-06T03:03:32;4.70;;;2.60;;
35921;SDS011;22013;48.428;11.974;2022-07-06T03:06:09;3.77;;;3.30;;
35921;SDS011;22013;48.428;11.974;2022-07-06T03:08:45;7.70;;;2.83;;
35921;SDS011;22013;48.428;11.974;2022-07-06T03:11:23;6.10;;;2.90;;
35921;SDS011;22013;48.428;11.974;2022-07-06T03:13:59;5.47;;;3.10;;
35921;SDS011;22013;48.428;11.974;2022-07-06T03:16:37;4.57;;;2.63;;
35921;SDS011;22013;48.428;11.974;2022-07-06T03:19:20;4.37;;;3.23;;
35921;SDS011;22013;48.428;11.974;2022-07-06T03:21:56;4.00;;;2.90;;
35921;SDS011;22013;48.428;11.974;2022-07-06T03:24:32;4.90;;;2.50;;
35921;SDS011;22013;48.428;11.974;2022-07-06T03:27:11;4.60;;;3.07;;
35921;SDS011;22013;48.428;11.974;2022-07-06T03:29:47;4.33;;;3.03;;
35921;SDS011;22013;48.428;11.974;2022-07-06T03:32:24;8.33;;;3.00;;
35921;SDS011;22013;48.428;11.974;2022-07-06T03:35:00;7.30;;;2.70;;
35921;SDS011;22013;48.428;11.974;2022-07-06T03:37:37;3.33;;;3.03;;
35921;SDS011;22013;48.428;11.974;2022-07-06T03:40:13;3.70;;;3.03;;
35921;SDS011;22013;48.428;11.974;2022-07-06T03:42:54;3.53;;;3.23;;
35921;SDS011;22013;48.428;11.974;2022-07-06T03:45:32;3.10;;;2.90;;
35921;SDS011;22013;48.428;11.974;2022-07-06T03:48:09;3.87;;;2.70;;
35921;SDS011;22013;48.428;11.974;2022-07-06T03:50:45;7.20;;;3.63;;
35921;SDS011;22013;48.428;11.974;2022-07-06T03:53:21;4.03;;;3.30;;
35921;SDS011;22013;48.428;11.974;2022-07-06T03:55:58;3.07;;;2.83;;
35921;SDS011;22013;48.428;11.974;2022-07-06T03:58:49;4.90;;;3.03;;
35921;SDS011;22013;48.428;11.974;2022-07-06T04:01:25;7.40;;;3.20;;
35921;SDS011;22013;48.428;11.974;2022-07-06T04:04:02;4.17;;;3.27;;
35921;SDS011;22013;48.428;11.974;2022-07-06T04:06:41;8.90;;;3.13;;
35921;SDS011;22013;48.428;11.974;2022-07-06T04:09:18;5.10;;;3.03;;
35921;SDS011;22013;48.428;11.974;2022-07-06T04:11:55;2.90;;;2.60;;
35921;SDS011;22013;48.428;11.974;2022-07-06T04:14:34;2.93;;;2.73;;
35921;SDS011;22013;48.428;11.974;2022-07-06T04:17:09;8.70;;;3.20;;
35921;SDS011;22013;48.428;11.974;2022-07-06T04:20:07;5.27;;;3.17;;
35921;SDS011;22013;48.428;11.974;2022-07-06T04:22:44;3.83;;;3.53;;
35921;SDS011;22013;48.428;11.974;2022-07-06T04:25:20;6.03;;;3.10;;
35921;SDS011;22013;48.428;11.974;2022-07-06T04:27:56;4.83;;;2.77;;
35921;SDS011;22013;48.428;11.974;2022-07-06T04:30:36;3.77;;;3.07;;
35921;SDS011;22013;48.428;11.974;2022-07-06T04:33:16;3.50;;;3.20;;
35921;SDS011;22013;48.428;11.974;2022-07-06T04:35:53;4.37;;;3.80;;
35921;SDS011;22013;48.428;11.974;2022-07-06T04:38:36;4.60;;;3.20;;
35921;SDS011;22013;48.428;11.974;2022-07-06T04:41:14;5.67;;;2.60;;
35921;SDS011;22013;48.428;11.974;2022-07-06T04:43:50;4.33;;;2.90;;
35921;SDS011;22013;48.428;11.974;2022-07-06T04:46:29;4.53;;;2.83;;
35921;SDS011;22013;48.428;11.974;2022-07-06T04:49:05;3.47;;;3.03;;
35921;SDS011;22013;48.428;11.974;2022-07-06T04:51:42;3.30;;;3.00;;
35921;SDS011;22013;48.428;11.974;2022-07-06T04:54:18;6.83;;;3.00;;
35921;SDS011;22013;48.428;11.974;2022-07-06T04:56:53;3.50;;;3.10;;
35921;SDS011;22013;48.428;11.974;2022-07-06T04:59:29;11.60;;;3.50;;
35921;SDS011;22013;48.428;11.974;2022-07-06T05:02:08;5.43;;;3.40;;
35921;SDS011;22013;48.428;11.974;2022-07-06T05:04:44;3.40;;;3.03;;
35921;SDS011;22013;48.428;11.974;2022-07-06T05:07:19;3.97;;;2.70;;
35921;SDS011;22013;48.428;11.974;2022-07-06T05:10:00;3.23;;;2.90;;
35921;SDS011;22013;48.428;11.974;2022-07-06T05:12:37;3.80;;;3.10;;
35921;SDS011;22013;48.428;11.974;2022-07-06T05:15:13;3.13;;;2.93;;
35921;SDS011;22013;48.428;11.974;2022-07-06T05:17:52;3.40;;;3.10;;
35921;SDS011;22013;48.428;11.974;2022-07-06T05:20:28;4.50;;;3.27;;
35921;SDS011;22013;48.428;11.974;2022-07-06T05:23:04;5.77;;;2.43;;
35921;SDS011;22013;48.428;11.974;2022-07-06T05:25:41;4.07;;;2.33;;
35921;SDS011;22013;48.428;11.974;2022-07-06T05:28:17;3.90;;;2.50;;
35921;SDS011;22013;48.428;11.974;2022-07-06T05:30:53;5.20;;;2.70;;
35921;SDS011;22013;48.428;11.974;2022-07-06T05:33:32;9.10;;;2.80;;
35921;SDS011;22013;48.428;11.974;2022-07-06T05:36:07;4.00;;;2.73;;
35921;SDS011;22013;48.428;11.974;2022-07-06T05:38:43;8.17;;;2.90;;
35921;SDS011;22013;48.428;11.974;2022-07-06T05:41:19;3.80;;;2.60;;
35921;SDS011;22013;48.428;11.974;2022-07-06T05:44:03;2.60;;;2.40;;
35921;SDS011;22013;48.428;11.974;2022-07-06T05:46:38;3.00;;;2.70;;
35921;SDS011;22013;48.428;11.974;2022-07-06T05:49:17;3.93;;;2.33;;
35921;SDS011;22013;48.428;11.974;2022-07-06T05:52:19;2.50;;;2.30;;
35921;SDS011;22013;48.428;11.974;2022-07-06T05:54:55;4.90;;;2.70;;
35921;SDS011;22013;48.428;11.974;2022-07-06T05:57:31;2.70;;;2.50;;
35921;SDS011;22013;48.428;11.974;2022-07-06T06:00:07;2.73;;;2.53;;
35921;SDS011;22013;48.428;11.974;2022-07-06T06:02:51;2.70;;;2.50;;
35921;SDS011;22013;48.428;11.974;2022-07-06T06:05:29;2.37;;;2.17;;
35921;SDS011;22013;48.428;11.974;2022-07-06T06:08:09;2.60;;;2.30;;
35921;SDS011;22013;48.428;11.974;2022-07-06T06:10:44;3.33;;;2.63;;
35921;SDS011;22013;48.428;11.974;2022-07-06T06:13:23;5.43;;;2.30;;
35921;SDS011;22013;48.428;11.974;2022-07-06T06:15:58;2.50;;;2.30;;
35921;SDS011;22013;48.428;11.974;2022-07-06T06:18:34;2.73;;;2.30;;
35921;SDS011;22013;48.428;11.974;2022-07-06T06:21:15;4.70;;;2.20;;
35921;SDS011;22013;48.428;11.974;2022-07-06T06:23:51;2.50;;;2.30;;
35921;SDS011;22013;48.428;11.974;2022-07-06T06:26:27;2.63;;;2.40;;
35921;SDS011;22013;48.428;11.974;2022-07-06T06:29:03;2.20;;;2.10;;
35921;SDS011;22013;48.428;11.974;2022-07-06T06:31:39;2.80;;;2.10;;
35921;SDS011;22013;48.428;11.974;2022-07-06T06:34:15;2.80;;;2.20;;
35921;SDS011;22013;48.428;11.974;2022-07-06T06:36:53;2.23;;;2.03;;
35921;SDS011;22013;48.428;11.974;2022-07-06T06:39:29;2.37;;;2.17;;
35921;SDS011;22013;48.428;11.974;2022-07-06T06:42:05;3.70;;;2.60;;
35921;SDS011;22013;48.428;11.974;2022-07-06T06:44:45;4.10;;;2.40;;
35921;SDS011;22013;48.428;11.974;2022-07-06T06:47:21;4.30;;;2.10;;
35921;SDS011;22013;48.428;11.974;2022-07-06T06:49:57;3.60;;;2.57;;
35921;SDS011;22013;48.428;11.974;2022-07-06T06:52:37;2.87;;;2.50;;
35921;SDS011;22013;48.428;11.974;2022-07-06T06:55:12;2.73;;;2.23;;
35921;SDS011;22013;48.428;11.974;2022-07-06T06:57:48;4.57;;;2.80;;
35921;SDS011;22013;48.428;11.974;2022-07-06T07:00:24;2.67;;;2.40;;
35921;SDS011;22013;48.428;11.974;2022-07-06T07:03:00;2.27;;;2.07;;
35921;SDS011;22013;48.428;11.974;2022-07-06T07:05:36;2.97;;;2.50;;
35921;SDS011;22013;48.428;11.974;2022-07-06T07:08:14;3.83;;;2.17;;
35921;SDS011;22013;48.428;11.974;2022-07-06T07:10:50;3.47;;;2.40;;
35921;SDS011;22013;48.428;11.974;2022-07-06T07:13:26;2.60;;;2.40;;
35921;SDS011;22013;48.428;11.974;2022-07-06T07:16:02;4.73;;;2.40;;
35921;SDS011;22013;48.428;11.974;2022-07-06T07:18:38;3.37;;;2.83;;
35921;SDS011;22013;48.428;11.974;2022-07-06T07:21:14;3.93;;;2.53;;
35921;SDS011;22013;48.428;11.974;2022-07-06T07:23:53;2.97;;;2.47;;
35921;SDS011;22013;48.428;11.974;2022-07-06T07:26:29;8.07;;;2.37;;
35921;SDS011;22013;48.428;11.974;2022-07-06T07:29:04;3.20;;;2.30;;
35921;SDS011;22013;48.428;11.974;2022-07-06T07:31:40;7.00;;;2.47;;
35921;SDS011;22013;48.428;11.974;2022-07-06T07:34:16;3.87;;;2.30;;
35921;SDS011;22013;48.428;11.974;2022-07-06T07:36:51;4.87;;;2.40;;
35921;SDS011;22013;48.428;11.974;2022-07-06T07:39:29;2.63;;;2.30;;
35921;SDS011;22013;48.428;11.974;2022-07-06T07:42:05;2.30;;;2.10;;
35921;SDS011;22013;48.428;11.974;2022-07-06T07:44:48;2.30;;;2.13;;
35921;SDS011;22013;48.428;11.974;2022-07-06T07:47:23;3.70;;;2.37;;
35921;SDS011;22013;48.428;11.974;2022-07-06T07:49:59;6.90;;;2.20;;
35921;SDS011;22013;48.428;11.974;2022-07-06T07:52:35;3.13;;;2.30;;
35921;SDS011;22013;48.428;11.974;2022-07-06T07:55:14;7.80;;;2.40;;
35921;SDS011;22013;48.428;11.974;2022-07-06T07:58:09;2.47;;;2.27;;
35921;SDS011;22013;48.428;11.974;2022-07-06T08:00:45;4.67;;;2.20;;
35921;SDS011;22013;48.428;11.974;2022-07-06T08:03:20;2.90;;;2.30;;
35921;SDS011;22013;48.428;11.974;2022-07-06T08:05:56;5.00;;;2.30;;
35921;SDS011;22013;48.428;11.974;2022-07-06T08:08:32;2.40;;;2.20;;
35921;SDS011;22013;48.428;11.974;2022-07-06T08:11:11;2.37;;;2.17;;
35921;SDS011;22013;48.428;11.974;2022-07-06T08:13:50;3.97;;;2.60;;
35921;SDS011;22013;48.428;11.974;2022-07-06T08:16:26;6.87;;;2.50;;
35921;SDS011;22013;48.428;11.974;2022-07-06T08:19:02;2.60;;;2.40;;
35921;SDS011;22013;48.428;11.974;2022-07-06T08:21:42;4.77;;;2.40;;
35921;SDS011;22013;48.428;11.974;2022-07-06T08:24:17;2.70;;;2.50;;
35921;SDS011;22013;48.428;11.974;2022-07-06T08:26:56;3.23;;;2.37;;
35921;SDS011;22013;48.428;11.974;2022-07-06T08:29:31;2.97;;;2.30;;
35921;SDS011;22013;48.428;11.974;2022-07-06T08:32:07;3.43;;;2.37;;
35921;SDS011;22013;48.428;11.974;2022-07-06T08:35:00;3.20;;;2.40;;
35921;SDS011;22013;48.428;11.974;2022-07-06T08:37:36;5.50;;;2.80;;
35921;SDS011;22013;48.428;11.974;2022-07-06T08:40:12;2.90;;;2.50;;
35921;SDS011;22013;48.428;11.974;2022-07-06T08:42:51;3.03;;;2.20;;
35921;SDS011;22013;48.428;11.974;2022-07-06T08:45:28;4.53;;;2.50;;
35921;SDS011;22013;48.428;11.974;2022-07-06T08:48:05;3.67;;;2.23;;
35921;SDS011;22013;48.428;11.974;2022-07-06T08:50:41;3.87;;;2.53;;
35921;SDS011;22013;48.428;11.974;2022-07-06T08:53:17;4.20;;;2.20;;
35921;SDS011;22013;48.428;11.974;2022-07-06T08:55:53;5.27;;;2.50;;
35921;SDS011;22013;48.428;11.974;2022-07-06T08:58:32;4.67;;;2.27;;
35921;SDS011;22013;48.428;11.974;2022-07-06T09:01:08;7.20;;;2.10;;
35921;SDS011;22013;48.428;11.974;2022-07-06T09:03:45;2.30;;;2.00;;
35921;SDS011;22013;48.428;11.974;2022-07-06T09:06:22;3.43;;;2.13;;
35921;SDS011;22013;48.428;11.974;2022-07-06T09:08:59;2.57;;;2.00;;
35921;SDS011;22013;48.428;11.974;2022-07-06T09:11:38;3.07;;;2.43;;
35921;SDS011;22013;48.428;11.974;2022-07-06T09:14:16;3.03;;;2.10;;
35921;SDS011;22013;48.428;11.974;2022-07-06T09:17:00;5.60;;;2.20;;
35921;SDS011;22013;48.428;11.974;2022-07-06T09:19:44;3.67;;;2.07;;
35921;SDS011;22013;48.428;11.974;2022-07-06T09:22:24;5.67;;;2.37;;
35921;SDS011;22013;48.428;11.974;2022-07-06T09:25:03;4.20;;;2.50;;
35921;SDS011;22013;48.428;11.974;2022-07-06T09:27:40;5.70;;;2.20;;
35921;SDS011;22013;48.428;11.974;2022-07-06T09:30:21;2.73;;;2.40;;
35921;SDS011;22013;48.428;11.974;2022-07-06T09:32:58;2.23;;;2.03;;
35921;SDS011;22013;48.428;11.974;2022-07-06T09:35:35;2.70;;;2.33;;
35921;SDS011;22013;48.428;11.974;2022-07-06T09:38:11;2.13;;;1.93;;
35921;SDS011;22013;48.428;11.974;2022-07-06T09:40:47;2.47;;;2.00;;
35921;SDS011;22013;48.428;11.974;2022-07-06T09:43:23;2.33;;;2.13;;
35921;SDS011;22013;48.428;11.974;2022-07-06T09:46:02;3.73;;;2.07;;
35921;SDS011;22013;48.428;11.974;2022-07-06T09:48:38;4.57;;;1.80;;
35921;SDS011;22013;48.428;11.974;2022-07-06T09:51:16;2.10;;;1.93;;
35921;SDS011;22013;48.428;11.974;2022-07-06T09:53:57;4.57;;;2.20;;
35921;SDS011;22013;48.428;11.974;2022-07-06T09:56:36;3.90;;;2.47;;
35921;SDS011;22013;48.428;11.974;2022-07-06T09:59:13;3.97;;;2.10;;
35921;SDS011;22013;48.428;11.974;2022-07-06T10:01:53;6.00;;;2.23;;
35921;SDS011;22013;48.428;11.974;2022-07-06T10:04:29;3.30;;;2.17;;
35921;SDS011;22013;48.428;11.974;2022-07-06T10:07:05;3.97;;;1.90;;
35921;SDS011;22013;48.428;11.974;2022-07-06T10:09:41;3.57;;;2.13;;
35921;SDS011;22013;48.428;11.974;2022-07-06T10:12:17;3.57;;;2.03;;
35921;SDS011;22013;48.428;11.974;2022-07-06T10:14:55;15.50;;;2.67;;
35921;SDS011;22013;48.428;11.974;2022-07-06T10:17:34;10.63;;;2.30;;
35921;SDS011;22013;48.428;11.974;2022-07-06T10:20:10;2.27;;;2.17;;
35921;SDS011;22013;48.428;11.974;2022-07-06T10:22:46;2.57;;;2.17;;
35921;SDS011;22013;48.428;11.974;2022-07-06T10:25:22;6.50;;;2.63;;
35921;SDS011;22013;48.428;11.974;2022-07-06T10:27:58;5.50;;;2.33;;
35921;SDS011;22013;48.428;11.974;2022-07-06T10:30:35;3.10;;;1.97;;
35921;SDS011;22013;48.428;11.974;2022-07-06T10:33:13;2.33;;;2.13;;
35921;SDS011;22013;48.428;11.974;2022-07-06T10:35:56;5.23;;;2.20;;
35921;SDS011;22013;48.428;11.974;2022-07-06T10:38:33;2.53;;;1.60;;
35921;SDS011;22013;48.428;11.974;2022-07-06T10:41:09;2.40;;;1.90;;
35921;SDS011;22013;48.428;11.974;2022-07-06T10:43:45;3.27;;;1.93;;
35921;SDS011;22013;48.428;11.974;2022-07-06T10:46:21;5.17;;;1.87;;
35921;SDS011;22013;48.428;11.974;2022-07-06T10:49:00;2.00;;;1.80;;
35921;SDS011;22013;48.428;11.974;2022-07-06T10:52:10;3.07;;;2.00;;
35921;SDS011;22013;48.428;11.974;2022-07-06T10:54:46;4.93;;;2.13;;
35921;SDS011;22013;48.428;11.974;2022-07-06T10:57:22;3.10;;;2.20;;
35921;SDS011;22013;48.428;11.974;2022-07-06T11:00:02;3.50;;;2.33;;
35921;SDS011;22013;48.428;11.974;2022-07-06T11:02:40;2.97;;;1.80;;
35921;SDS011;22013;48.428;11.974;2022-07-06T11:08:51;2.43;;;2.20;;
35921;SDS011;22013;48.428;11.974;2022-07-06T11:11:37;4.70;;;3.27;;
35921;SDS011;22013;48.428;11.974;2022-07-06T11:14:17;3.90;;;1.90;;
35921;SDS011;22013;48.428;11.974;2022-07-06T11:17:00;2.77;;;2.00;;
35921;SDS011;22013;48.428;11.974;2022-07-06T11:19:37;1.93;;;1.60;;
35921;SDS011;22013;48.428;11.974;2022-07-06T11:22:16;2.03;;;1.77;;
35921;SDS011;22013;48.428;11.974;2022-07-06T11:24:52;2.87;;;1.73;;
35921;SDS011;22013;48.428;11.974;2022-07-06T11:27:28;2.60;;;2.10;;
35921;SDS011;22013;48.428;11.974;2022-07-06T11:30:05;2.43;;;1.70;;
35921;SDS011;22013;48.428;11.974;2022-07-06T11:32:44;2.10;;;1.70;;
35921;SDS011;22013;48.428;11.974;2022-07-06T11:35:20;3.47;;;1.70;;
35921;SDS011;22013;48.428;11.974;2022-07-06T11:38:00;1.83;;;1.73;;
35921;SDS011;22013;48.428;11.974;2022-07-06T11:41:01;1.80;;;1.70;;
35921;SDS011;22013;48.428;11.974;2022-07-06T11:43:37;3.93;;;1.70;;
35921;SDS011;22013;48.428;11.974;2022-07-06T11:46:19;6.57;;;1.90;;
35921;SDS011;22013;48.428;11.974;2022-07-06T11:49:02;6.00;;;1.83;;
35921;SDS011;22013;48.428;11.974;2022-07-06T11:51:39;1.97;;;1.83;;
35921;SDS011;22013;48.428;11.974;2022-07-06T11:54:19;3.50;;;1.87;;
35921;SDS011;22013;48.428;11.974;2022-07-06T11:56:56;1.83;;;1.73;;
35921;SDS011;22013;48.428;11.974;2022-07-06T11:59:33;1.80;;;1.70;;
35921;SDS011;22013;48.428;11.974;2022-07-06T12:02:10;3.33;;;1.97;;
35921;SDS011;22013;48.428;11.974;2022-07-06T12:04:46;3.40;;;1.73;;
35921;SDS011;22013;48.428;11.974;2022-07-06T12:07:22;10.43;;;2.03;;
35921;SDS011;22013;48.428;11.974;2022-07-06T12:10:00;2.83;;;1.90;;
35921;SDS011;22013;48.428;11.974;2022-07-06T12:12:36;2.43;;;2.13;;
35921;SDS011;22013;48.428;11.974;2022-07-06T12:15:12;1.60;;;1.50;;
35921;SDS011;22013;48.428;11.974;2022-07-06T12:17:48;1.73;;;1.60;;
35921;SDS011;22013;48.428;11.974;2022-07-06T12:20:24;2.87;;;1.70;;
35921;SDS011;22013;48.428;11.974;2022-07-06T12:23:01;2.73;;;1.83;;
35921;SDS011;22013;48.428;11.974;2022-07-06T12:25:40;4.97;;;1.53;;
35921;SDS011;22013;48.428;11.974;2022-07-06T12:28:21;2.50;;;1.90;;
35921;SDS011;22013;48.428;11.974;2022-07-06T12:30:57;2.20;;;1.70;;
35921;SDS011;22013;48.428;11.974;2022-07-06T12:33:33;2.30;;;1.70;;
35921;SDS011;22013;48.428;11.974;2022-07-06T12:36:10;2.03;;;1.53;;
35921;SDS011;22013;48.428;11.974;2022-07-06T12:38:47;2.20;;;1.67;;
35921;SDS011;22013;48.428;11.974;2022-07-06T12:41:30;1.53;;;1.43;;
35921;SDS011;22013;48.428;11.974;2022-07-06T12:44:06;4.70;;;1.70;;
35921;SDS011;22013;48.428;11.974;2022-07-06T12:46:43;2.47;;;1.67;;
35921;SDS011;22013;48.428;11.974;2022-07-06T12:49:20;2.50;;;1.70;;
35921;SDS011;22013;48.428;11.974;2022-07-06T12:51:58;4.67;;;2.00;;
35921;SDS011;22013;48.428;11.974;2022-07-06T12:54:36;1.93;;;1.77;;
35921;SDS011;22013;48.428;11.974;2022-07-06T12:57:18;1.53;;;1.43;;
35921;SDS011;22013;48.428;11.974;2022-07-06T12:59:55;2.10;;;1.60;;
35921;SDS011;22013;48.428;11.974;2022-07-06T13:02:33;3.57;;;1.73;;
35921;SDS011;22013;48.428;11.974;2022-07-06T13:05:29;2.40;;;1.50;;
35921;SDS011;22013;48.428;11.974;2022-07-06T13:08:07;1.50;;;1.40;;
35921;SDS011;22013;48.428;11.974;2022-07-06T13:10:42;2.80;;;1.87;;
35921;SDS011;22013;48.428;11.974;2022-07-06T13:13:21;1.70;;;1.60;;
35921;SDS011;22013;48.428;11.974;2022-07-06T13:15:58;7.10;;;1.70;;
35921;SDS011;22013;48.428;11.974;2022-07-06T13:18:34;6.93;;;1.57;;
35921;SDS011;22013;48.428;11.974;2022-07-06T13:21:10;1.40;;;1.30;;
35921;SDS011;22013;48.428;11.974;2022-07-06T13:23:46;4.67;;;2.03;;
35921;SDS011;22013;48.428;11.974;2022-07-06T13:26:21;1.23;;;1.20;;
35921;SDS011;22013;48.428;11.974;2022-07-06T13:29:00;4.27;;;1.57;;
35921;SDS011;22013;48.428;11.974;2022-07-06T13:31:36;9.43;;;1.50;;
35921;SDS011;22013;48.428;11.974;2022-07-06T13:34:13;1.73;;;1.30;;
35921;SDS011;22013;48.428;11.974;2022-07-06T13:36:48;8.37;;;1.40;;
35921;SDS011;22013;48.428;11.974;2022-07-06T13:39:24;1.83;;;1.33;;
35921;SDS011;22013;48.428;11.974;2022-07-06T13:42:00;2.57;;;1.50;;
35921;SDS011;22013;48.428;11.974;2022-07-06T13:44:38;3.37;;;1.27;;
35921;SDS011;22013;48.428;11.974;2022-07-06T13:47:14;1.67;;;1.27;;
35921;SDS011;22013;48.428;11.974;2022-07-06T13:49:50;2.40;;;1.37;;
35921;SDS011;22013;48.428;11.974;2022-07-06T13:52:25;5.27;;;1.40;;
35921;SDS011;22013;48.428;11.974;2022-07-06T13:55:01;2.87;;;1.30;;
35921;SDS011;22013;48.428;11.974;2022-07-06T13:57:37;4.03;;;1.50;;
35921;SDS011;22013;48.428;11.974;2022-07-06T14:00:17;2.23;;;1.63;;
35921;SDS011;22013;48.428;11.974;2022-07-06T14:02:53;2.10;;;1.40;;
35921;SDS011;22013;48.428;11.974;2022-07-06T14:05:28;1.70;;;1.60;;
35921;SDS011;22013;48.428;11.974;2022-07-06T14:08:04;3.00;;;1.50;;
35921;SDS011;22013;48.428;11.974;2022-07-06T14:10:40;2.30;;;1.37;;
35921;SDS011;22013;48.428;11.974;2022-07-06T14:13:16;1.60;;;1.50;;
35921;SDS011;22013;48.428;11.974;2022-07-06T14:15:54;2.17;;;1.47;;
35921;SDS011;22013;48.428;11.974;2022-07-06T14:18:30;1.83;;;1.50;;
35921;SDS011;22013;48.428;11.974;2022-07-06T14:21:06;1.60;;;1.50;;
35921;SDS011;22013;48.428;11.974;2022-07-06T14:23:42;2.83;;;1.50;;
35921;SDS011;22013;48.428;11.974;2022-07-06T14:26:17;4.13;;;1.80;;
35921;SDS011;22013;48.428;11.974;2022-07-06T14:28:53;3.57;;;1.50;;
35921;SDS011;22013;48.428;11.974;2022-07-06T14:31:31;2.00;;;1.60;;
35921;SDS011;22013;48.428;11.974;2022-07-06T14:34:07;2.20;;;1.80;;
35921;SDS011;22013;48.428;11.974;2022-07-06T14:36:42;2.60;;;1.60;;
35921;SDS011;22013;48.428;11.974;2022-07-06T14:39:18;4.40;;;1.60;;
35921;SDS011;22013;48.428;11.974;2022-07-06T14:41:54;1.60;;;1.50;;
35921;SDS011;22013;48.428;11.974;2022-07-06T14:44:29;4.10;;;1.40;;
35921;SDS011;22013;48.428;11.974;2022-07-06T14:47:10;4.93;;;1.70;;
35921;SDS011;22013;48.428;11.974;2022-07-06T14:49:46;1.70;;;1.60;;
35921;SDS011;22013;48.428;11.974;2022-07-06T14:52:22;1.80;;;1.70;;
35921;SDS011;22013;48.428;11.974;2022-07-06T14:54:58;4.73;;;2.10;;
35921;SDS011;22013;48.428;11.974;2022-07-06T14:57:33;1.67;;;1.57;;
35921;SDS011;22013;48.428;11.974;2022-07-06T15:00:10;3.73;;;1.70;;
35921;SDS011;22013;48.428;11.974;2022-07-06T15:02:49;17.07;;;1.77;;
35921;SDS011;22013;48.428;11.974;2022-07-06T15:05:24;1.77;;;1.60;;
35921;SDS011;22013;48.428;11.974;2022-07-06T15:08:00;1.67;;;1.47;;
35921;SDS011;22013;48.428;11.974;2022-07-06T15:10:36;4.37;;;1.83;;
35921;SDS011;22013;48.428;11.974;2022-07-06T15:13:12;1.63;;;1.50;;
35921;SDS011;22013;48.428;11.974;2022-07-06T15:15:47;2.60;;;1.57;;
35921;SDS011;22013;48.428;11.974;2022-07-06T15:18:32;1.40;;;1.30;;
35921;SDS011;22013;48.428;11.974;2022-07-06T15:21:08;8.00;;;1.97;;
35921;SDS011;22013;48.428;11.974;2022-07-06T15:23:44;1.70;;;1.60;;
35921;SDS011;22013;48.428;11.974;2022-07-06T15:26:19;1.93;;;1.60;;
35921;SDS011;22013;48.428;11.974;2022-07-06T15:28:56;1.50;;;1.40;;
35921;SDS011;22013;48.428;11.974;2022-07-06T15:31:32;4.33;;;1.67;;
35921;SDS011;22013;48.428;11.974;2022-07-06T15:34:11;1.60;;;1.50;;
35921;SDS011;22013;48.428;11.974;2022-07-06T15:36:46;1.60;;;1.50;;